Time;durP1;ratioP1;P1;durP2;ratioP2;P2;SDS_P1;SDS_P2;PMS_P1;PMS_P2;Temp;Humidity;BMP_temperature;BMP_pressure;BME280_temperature;BME280_humidity;BME280_pressure;Samples;Min_cycle;Max_cycle;Signal;HPM_P1;HPM_P2
2021/06/09 00:00:28;;;;;;;;;7.00;7.00;;;;;-147.17;100.00;59696.56;5020404;28;51436;-46
2021/06/09 00:02:54;;;;;;;;;8.67;8.67;;;;;-147.17;100.00;59696.56;5018453;28;51334;-45
2021/06/09 00:05:19;;;;;;;;;7.00;7.00;;;;;-147.17;100.00;59696.56;5018391;28;51281;-44
2021/06/09 00:07:44;;;;;;;;;7.67;7.67;;;;;-147.17;100.00;59696.56;5015193;28;51231;-44
2021/06/09 00:10:11;;;;;;;;;7.33;7.33;;;;;-147.17;100.00;59696.56;5016120;28;52345;-44
2021/06/09 00:12:36;;;;;;;;;7.33;7.33;;;;;-147.17;100.00;59696.56;5019181;28;51296;-48
2021/06/09 00:15:05;;;;;;;;;6.50;6.50;;;;;-147.17;100.00;59696.56;5030639;28;51127;-43
2021/06/09 00:17:30;;;;;;;;;7.00;7.00;;;;;-147.17;100.00;59696.56;5049122;28;51450;-44
2021/06/09 00:19:56;;;;;;;;;7.00;7.00;;;;;-147.17;100.00;59696.56;5017434;28;51806;-44
2021/06/09 00:22:21;;;;;;;;;7.67;7.00;;;;;-147.17;100.00;59696.56;5020484;28;52678;-43
2021/06/09 00:24:46;;;;;;;;;7.67;7.67;;;;;-147.17;100.00;59696.56;5018821;28;51312;-43
2021/06/09 00:27:13;;;;;;;;;6.33;6.33;;;;;-147.17;100.00;59696.56;5018201;28;51182;-44
2021/06/09 00:29:39;;;;;;;;;5.67;5.67;;;;;-147.17;100.00;59696.56;5016632;28;52652;-43
2021/06/09 00:32:04;;;;;;;;;6.00;6.00;;;;;-147.17;100.00;59696.56;5015918;28;51871;-44
2021/06/09 00:34:30;;;;;;;;;6.00;6.00;;;;;-147.17;100.00;59696.56;5019847;28;54730;-45
2021/06/09 00:36:55;;;;;;;;;8.67;7.00;;;;;-147.17;100.00;59696.56;5029567;28;52804;-49
2021/06/09 00:39:20;;;;;;;;;6.00;6.00;;;;;-147.17;100.00;59696.56;5022236;28;51706;-50
2021/06/09 00:41:46;;;;;;;;;5.33;5.33;;;;;-147.17;100.00;59696.56;5025198;28;51275;-45
2021/06/09 00:44:12;;;;;;;;;8.00;8.00;;;;;-147.17;100.00;59696.56;5025694;28;51725;-48
2021/06/09 00:46:39;;;;;;;;;5.67;5.67;;;;;-147.17;100.00;59696.56;5027930;28;51135;-48
2021/06/09 00:49:06;;;;;;;;;7.00;7.00;;;;;-147.17;100.00;59696.56;5064276;28;51032;-49
2021/06/09 00:51:32;;;;;;;;;6.33;6.33;;;;;-147.17;100.00;59696.56;5028849;28;51303;-46
2021/06/09 00:54:03;;;;;;;;;6.67;6.67;;;;;-147.17;100.00;59696.56;5031314;28;52711;-45
2021/06/09 00:56:30;;;;;;;;;7.33;6.33;;;;;-147.17;100.00;59696.56;5030477;28;51251;-47
2021/06/09 00:58:55;;;;;;;;;7.00;7.00;;;;;-147.17;100.00;59696.56;5032975;28;51098;-48
2021/06/09 01:01:24;;;;;;;;;8.00;8.00;;;;;-147.17;100.00;59696.56;5028150;28;51097;-50
2021/06/09 01:03:51;;;;;;;;;8.00;7.00;;;;;-147.17;100.00;59696.56;5032000;28;52976;-48
2021/06/09 01:06:16;;;;;;;;;7.67;7.00;;;;;-147.17;100.00;59696.56;5029724;28;51859;-51
2021/06/09 01:08:43;;;;;;;;;8.00;7.67;;;;;-147.17;100.00;59696.56;5028451;28;52748;-50
2021/06/09 01:11:14;;;;;;;;;6.00;6.00;;;;;-147.17;100.00;59696.56;5027137;28;51171;-45
2021/06/09 01:13:40;;;;;;;;;7.33;6.33;;;;;-147.17;100.00;59696.56;5029987;28;51706;-46
2021/06/09 01:16:06;;;;;;;;;7.00;7.00;;;;;-147.17;100.00;59696.56;5026995;28;50981;-46
2021/06/09 01:18:32;;;;;;;;;6.00;6.00;;;;;-147.17;100.00;59696.56;5029873;28;51202;-47
2021/06/09 01:20:58;;;;;;;;;6.67;6.33;;;;;-147.17;100.00;59696.56;5031508;28;51036;-47
2021/06/09 01:23:23;;;;;;;;;5.33;5.33;;;;;-147.17;100.00;59696.56;5030517;28;52609;-46
2021/06/09 01:25:49;;;;;;;;;7.33;5.33;;;;;-147.17;100.00;59696.56;5028602;28;51262;-47
2021/06/09 01:28:16;;;;;;;;;7.00;7.00;;;;;-147.17;100.00;59696.56;5029743;28;50988;-45
2021/06/09 01:30:42;;;;;;;;;6.67;6.67;;;;;-147.17;100.00;59696.56;5030379;28;51230;-47
2021/06/09 01:33:08;;;;;;;;;5.33;5.00;;;;;-147.17;100.00;59696.56;5031359;28;51777;-45
2021/06/09 01:35:34;;;;;;;;;6.67;6.67;;;;;-147.17;100.00;59696.56;5007313;28;51093;-47
2021/06/09 01:38:00;;;;;;;;;8.00;7.67;;;;;-147.17;100.00;59696.56;5026573;28;51098;-51
2021/06/09 01:40:27;;;;;;;;;6.67;6.00;;;;;-147.17;100.00;59696.56;5029855;28;51174;-49
2021/06/09 01:42:54;;;;;;;;;8.00;7.33;;;;;-147.17;100.00;59696.56;5030683;28;51974;-49
2021/06/09 01:45:22;;;;;;;;;7.33;6.33;;;;;-147.17;100.00;59696.56;5030045;28;51219;-50
2021/06/09 01:47:48;;;;;;;;;9.33;8.00;;;;;-147.17;100.00;59696.56;5028607;28;50910;-49
2021/06/09 01:50:16;;;;;;;;;8.00;8.00;;;;;-147.17;100.00;59696.56;5031853;28;50906;-48
2021/06/09 01:52:42;;;;;;;;;8.00;8.00;;;;;-147.17;100.00;59696.56;5027528;28;51921;-49
2021/06/09 01:55:11;;;;;;;;;12.50;10.50;;;;;-147.17;100.00;59696.56;5031100;28;51005;-49
2021/06/09 01:57:37;;;;;;;;;9.67;9.00;;;;;-147.17;100.00;59696.56;5028156;28;51218;-48
2021/06/09 02:00:11;;;;;;;;;11.25;10.00;;;;;-147.17;100.00;59696.56;5032447;28;51026;-47
2021/06/09 02:02:38;;;;;;;;;11.00;11.00;;;;;-147.17;100.00;59696.56;5027102;28;51829;-51
2021/06/09 02:05:06;;;;;;;;;9.67;9.67;;;;;-147.17;100.00;59696.56;5032178;28;50949;-48
2021/06/09 02:07:39;;;;;;;;;11.75;11.25;;;;;-147.17;100.00;59696.56;5028821;28;51198;-51
2021/06/09 02:10:16;;;;;;;;;12.33;12.33;;;;;-147.17;100.00;59696.56;5032175;28;50922;-50
2021/06/09 02:12:45;;;;;;;;;9.33;9.00;;;;;-147.17;100.00;59696.56;5030991;28;52147;-49
2021/06/09 02:15:12;;;;;;;;;12.00;11.00;;;;;-147.17;100.00;59696.56;5020710;28;51224;-49
2021/06/09 02:17:41;;;;;;;;;6.00;6.00;;;;;-147.17;100.00;59696.56;5026620;28;51763;-51
2021/06/09 02:20:07;;;;;;;;;9.67;9.67;;;;;-147.17;100.00;59696.56;5031710;28;51983;-50
2021/06/09 02:22:35;;;;;;;;;10.67;10.33;;;;;-147.17;100.00;59696.56;5027044;28;52921;-49
2021/06/09 02:25:01;;;;;;;;;8.33;8.00;;;;;-147.17;100.00;59696.56;5032783;28;51162;-50
2021/06/09 02:27:26;;;;;;;;;10.00;9.67;;;;;-147.17;100.00;59696.56;5032872;28;51252;-48
2021/06/09 02:29:52;;;;;;;;;7.67;7.67;;;;;-147.17;100.00;59696.56;5035528;28;51290;-49
2021/06/09 02:32:18;;;;;;;;;10.00;10.00;;;;;-147.17;100.00;59696.56;5025214;28;51980;-48
2021/06/09 02:34:44;;;;;;;;;10.00;10.00;;;;;-147.17;100.00;59696.56;5025925;28;51033;-51
2021/06/09 02:37:09;;;;;;;;;16.25;15.00;;;;;-147.17;100.00;59696.56;5031280;28;50946;-49
2021/06/09 02:39:34;;;;;;;;;18.25;18.25;;;;;-147.17;100.00;59696.56;5034639;28;51333;-50
2021/06/09 02:42:00;;;;;;;;;18.75;18.00;;;;;-147.17;100.00;59696.56;5029536;28;51795;-51
2021/06/09 02:44:25;;;;;;;;;18.50;18.50;;;;;-147.17;100.00;59696.56;5021773;28;51334;-51
2021/06/09 02:46:59;;;;;;;;;22.00;22.00;;;;;-147.17;100.00;59696.56;5031359;28;51182;-48
2021/06/09 02:49:29;;;;;;;;;19.50;18.50;;;;;-147.17;100.00;59696.56;5035198;28;50909;-50
2021/06/09 02:52:22;;;;;;;;;18.25;18.25;;;;;-147.17;100.00;59696.56;5029025;28;51806;-48
2021/06/09 02:54:57;;;;;;;;;18.50;18.25;;;;;-147.17;100.00;59696.56;5029896;28;51117;-49
2021/06/09 02:57:48;;;;;;;;;17.00;16.25;;;;;-147.17;100.00;59696.56;5027271;28;51187;-48
2021/06/09 03:00:19;;;;;;;;;16.75;15.75;;;;;-147.17;100.00;59696.56;5033440;28;51615;-46
2021/06/09 03:03:00;;;;;;;;;12.50;12.50;;;;;-147.17;100.00;59696.56;5027811;28;52058;-46
2021/06/09 03:05:52;;;;;;;;;12.33;12.00;;;;;-147.17;100.00;59696.56;5030952;28;51162;-47
2021/06/09 03:08:17;;;;;;;;;12.67;12.33;;;;;-147.17;100.00;59696.56;5003277;28;52281;-49
2021/06/09 03:10:57;;;;;;;;;11.25;10.25;;;;;-147.17;100.00;59696.56;5034804;28;51306;-46
2021/06/09 03:16:44;;;;;;;;;9.67;9.67;;;;;-147.17;100.00;59696.56;5019341;28;51034;-48
2021/06/09 03:19:16;;;;;;;;;11.00;10.33;;;;;-147.17;100.00;59696.56;5029488;28;51187;-51
2021/06/09 03:21:47;;;;;;;;;10.00;9.00;;;;;-147.17;100.00;59696.56;5032310;28;53422;-50
2021/06/09 03:24:22;;;;;;;;;10.00;8.67;;;;;-147.17;100.00;59696.56;5025282;28;52247;-51
2021/06/09 03:26:54;;;;;;;;;9.00;8.00;;;;;-147.17;100.00;59696.56;5023740;28;51203;-46
2021/06/09 03:29:40;;;;;;;;;11.00;11.00;;;;;-147.17;100.00;59696.56;5030065;28;51091;-45
2021/06/09 03:32:09;;;;;;;;;9.00;9.00;;;;;-147.17;100.00;59696.56;5029484;28;50951;-46
2021/06/09 03:34:50;;;;;;;;;11.00;11.00;;;;;-147.17;100.00;59696.56;5028834;28;52903;-47
2021/06/09 03:37:20;;;;;;;;;10.50;10.50;;;;;-147.17;100.00;59696.56;5030025;28;50901;-45
2021/06/09 03:39:47;;;;;;;;;11.00;11.00;;;;;-147.17;100.00;59696.56;5026740;28;51201;-48
2021/06/09 03:42:15;;;;;;;;;9.50;9.50;;;;;-147.17;100.00;59696.56;5022940;28;52022;-47
2021/06/09 03:44:49;;;;;;;;;10.00;10.00;;;;;-147.17;100.00;59696.56;5023796;28;51137;-48
2021/06/09 03:47:18;;;;;;;;;9.00;9.00;;;;;-147.17;100.00;59696.56;5028942;28;51164;-48
2021/06/09 03:49:44;;;;;;;;;8.00;8.00;;;;;-147.17;100.00;59696.56;5033878;28;51058;-46
2021/06/09 03:52:11;;;;;;;;;8.00;8.00;;;;;-147.17;100.00;59696.56;5030696;28;51035;-49
2021/06/09 03:54:40;;;;;;;;;8.33;8.00;;;;;-147.17;100.00;59696.56;5032333;28;50934;-51
2021/06/09 03:57:06;;;;;;;;;9.00;9.00;;;;;-147.17;100.00;59696.56;5028022;28;51145;-47
2021/06/09 03:59:32;;;;;;;;;10.33;10.33;;;;;-147.17;100.00;59696.56;5028815;28;51247;-51
2021/06/09 04:02:00;;;;;;;;;11.00;11.00;;;;;-147.17;100.00;59696.56;5030960;28;51163;-46
2021/06/09 04:04:28;;;;;;;;;10.50;10.00;;;;;-147.17;100.00;59696.56;5030388;28;51211;-48
2021/06/09 04:06:56;;;;;;;;;10.67;10.67;;;;;-147.17;100.00;59696.56;5029554;28;51768;-50
2021/06/09 04:09:23;;;;;;;;;11.00;9.67;;;;;-147.17;100.00;59696.56;5032900;28;51058;-47
2021/06/09 04:11:52;;;;;;;;;11.00;10.00;;;;;-147.17;100.00;59696.56;5029251;28;51279;-50
2021/06/09 04:14:20;;;;;;;;;12.67;12.00;;;;;-147.17;100.00;59696.56;5030405;28;51971;-50
2021/06/09 04:16:47;;;;;;;;;11.00;11.00;;;;;-147.17;100.00;59696.56;5029775;28;51176;-46
2021/06/09 04:19:14;;;;;;;;;8.67;8.00;;;;;-147.17;100.00;59696.56;5030015;28;51199;-47
2021/06/09 04:21:40;;;;;;;;;9.00;9.00;;;;;-147.17;100.00;59696.56;5029022;28;51010;-49
2021/06/09 04:24:05;;;;;;;;;9.67;9.67;;;;;-147.17;100.00;59696.56;5029845;28;51227;-45
2021/06/09 04:26:33;;;;;;;;;9.33;8.67;;;;;-147.17;100.00;59696.56;5030203;28;51228;-46
2021/06/09 04:28:58;;;;;;;;;10.67;9.67;;;;;-147.17;100.00;59696.56;5024655;28;51457;-45
2021/06/09 04:31:25;;;;;;;;;12.00;12.00;;;;;-147.17;100.00;59696.56;5030858;28;51290;-46
2021/06/09 04:33:55;;;;;;;;;10.00;10.00;;;;;-147.17;100.00;59696.56;5029433;28;51904;-46
2021/06/09 04:36:21;;;;;;;;;10.33;10.00;;;;;-147.17;100.00;59696.56;5030736;28;51014;-50
2021/06/09 04:38:46;;;;;;;;;10.00;9.67;;;;;-147.17;100.00;59696.56;5023801;28;51193;-49
2021/06/09 04:41:12;;;;;;;;;8.67;8.67;;;;;-147.17;100.00;59696.56;5029171;28;51046;-49
2021/06/09 04:43:38;;;;;;;;;9.67;9.00;;;;;-147.17;100.00;59696.56;5030835;28;51192;-49
2021/06/09 04:46:04;;;;;;;;;11.33;10.33;;;;;-147.17;100.00;59696.56;5031506;28;51021;-50
2021/06/09 04:48:29;;;;;;;;;9.67;9.67;;;;;-147.17;100.00;59696.56;5028923;28;51257;-49
2021/06/09 04:50:55;;;;;;;;;7.67;7.00;;;;;-147.17;100.00;59696.56;5031125;28;51379;-48
2021/06/09 04:53:21;;;;;;;;;26.75;24.75;;;;;-147.17;100.00;59696.56;5023295;28;51245;-48
2021/06/09 04:55:55;;;;;;;;;14.50;14.50;;;;;-147.17;100.00;59696.56;5032654;28;50967;-46
2021/06/09 04:58:24;;;;;;;;;9.33;8.33;;;;;-147.17;100.00;59696.56;5025262;28;51400;-46
2021/06/09 05:00:51;;;;;;;;;8.67;8.00;;;;;-147.17;100.00;59696.56;5030019;28;51340;-46
2021/06/09 05:03:18;;;;;;;;;9.33;9.33;;;;;-147.17;100.00;59696.56;5025949;28;51142;-47
2021/06/09 05:05:44;;;;;;;;;9.33;9.00;;;;;-147.17;100.00;59696.56;5026962;28;51159;-45
2021/06/09 05:08:09;;;;;;;;;11.00;10.33;;;;;-147.17;100.00;59696.56;5025739;28;51436;-45
2021/06/09 05:10:38;;;;;;;;;10.00;10.00;;;;;-147.17;100.00;59696.56;5031961;28;51275;-49
2021/06/09 05:13:39;;;;;;;;;10.00;10.00;;;;;-147.17;100.00;59696.56;5028319;28;52012;-46
2021/06/09 05:16:09;;;;;;;;;14.67;13.00;;;;;-147.17;100.00;59696.56;5009793;28;51018;-49
2021/06/09 05:18:44;;;;;;;;;10.67;10.67;;;;;-147.17;100.00;59696.56;5024595;28;51209;-47
2021/06/09 05:21:09;;;;;;;;;11.00;10.67;;;;;-147.17;100.00;59696.56;5030988;28;51224;-50
2021/06/09 05:23:45;;;;;;;;;10.33;10.33;;;;;-147.17;100.00;59696.56;5028348;28;51143;-46
2021/06/09 05:26:13;;;;;;;;;10.00;10.00;;;;;-147.17;100.00;59696.56;5029073;28;51215;-45
2021/06/09 05:28:45;;;;;;;;;12.00;12.00;;;;;-147.17;100.00;59696.56;5022603;28;51340;-45
2021/06/09 05:31:12;;;;;;;;;13.00;13.00;;;;;-147.17;100.00;59696.56;5029294;28;51556;-47
2021/06/09 05:33:39;;;;;;;;;13.00;12.67;;;;;-147.17;100.00;59696.56;5025323;28;51428;-47
2021/06/09 05:36:05;;;;;;;;;10.00;10.00;;;;;-147.17;100.00;59696.56;5030045;28;50958;-49
2021/06/09 05:38:31;;;;;;;;;13.67;13.00;;;;;-147.17;100.00;59696.56;5028930;28;51243;-45
2021/06/09 05:40:59;;;;;;;;;13.00;13.00;;;;;-147.17;100.00;59696.56;5031874;28;51120;-48
2021/06/09 05:43:27;;;;;;;;;15.00;14.67;;;;;-147.17;100.00;59696.56;5021635;28;51817;-46
2021/06/09 05:45:53;;;;;;;;;14.33;14.33;;;;;-147.17;100.00;59696.56;5025520;28;52156;-47
2021/06/09 05:48:19;;;;;;;;;12.00;12.00;;;;;-147.17;100.00;59696.56;5024876;28;51334;-48
2021/06/09 05:50:58;;;;;;;;;16.67;15.67;;;;;-147.17;100.00;59696.56;5031588;28;50988;-49
2021/06/09 05:53:28;;;;;;;;;16.00;14.67;;;;;-147.17;100.00;59696.56;5025592;28;52141;-49
2021/06/09 05:55:54;;;;;;;;;16.67;16.00;;;;;-147.17;100.00;59696.56;5030940;28;51003;-45
2021/06/09 05:58:22;;;;;;;;;20.00;19.67;;;;;-147.17;100.00;59696.56;5031153;28;51251;-45
2021/06/09 06:00:56;;;;;;;;;18.67;18.67;;;;;-147.17;100.00;59696.56;5035141;28;51306;-47
2021/06/09 06:03:23;;;;;;;;;18.33;18.00;;;;;-147.17;100.00;59696.56;5031097;28;52799;-49
2021/06/09 06:05:54;;;;;;;;;20.33;19.67;;;;;-147.17;100.00;59696.56;5035016;28;51087;-51
2021/06/09 06:08:19;;;;;;;;;23.00;22.00;;;;;-147.17;100.00;59696.56;5032379;28;51164;-47
2021/06/09 06:10:45;;;;;;;;;19.67;19.00;;;;;-147.17;100.00;59696.56;5035514;28;51310;-49
2021/06/09 06:13:13;;;;;;;;;24.00;23.67;;;;;-147.17;100.00;59696.56;5031864;28;51151;-49
2021/06/09 06:15:39;;;;;;;;;27.00;26.75;;;;;-147.17;100.00;59696.56;5034987;28;51076;-49
2021/06/09 06:18:05;;;;;;;;;26.75;25.75;;;;;-147.17;100.00;59696.56;5031242;28;51132;-48
2021/06/09 06:20:30;;;;;;;;;28.00;27.25;;;;;-147.17;100.00;59696.56;5035215;28;51199;-50
2021/06/09 06:22:55;;;;;;;;;27.00;26.00;;;;;-147.17;100.00;59696.56;5032932;28;51718;-51
2021/06/09 06:25:24;;;;;;;;;31.75;30.50;;;;;-147.17;100.00;59696.56;5033123;28;51145;-49
2021/06/09 06:27:52;;;;;;;;;29.75;28.25;;;;;-147.17;100.00;59696.56;5031680;28;51160;-49
2021/06/09 06:30:20;;;;;;;;;28.00;27.75;;;;;-147.17;100.00;59696.56;5024425;28;51169;-49
2021/06/09 06:32:50;;;;;;;;;29.50;28.00;;;;;-147.17;100.00;59696.56;5011904;28;52192;-47
2021/06/09 06:35:19;;;;;;;;;28.00;27.25;;;;;-147.17;100.00;59696.56;5025932;28;51108;-49
2021/06/09 06:37:47;;;;;;;;;28.25;27.75;;;;;-147.17;100.00;59696.56;5029644;28;51271;-47
2021/06/09 06:40:12;;;;;;;;;25.25;25.25;;;;;-147.17;100.00;59696.56;5034372;28;50919;-48
2021/06/09 06:42:38;;;;;;;;;28.50;27.25;;;;;-147.17;100.00;59696.56;5030985;28;52611;-49
2021/06/09 06:45:05;;;;;;;;;25.50;24.75;;;;;-147.17;100.00;59696.56;5033661;28;50962;-49
2021/06/09 06:47:30;;;;;;;;;27.75;26.50;;;;;-147.17;100.00;59696.56;5028827;28;51151;-46
2021/06/09 06:49:58;;;;;;;;;28.75;28.50;;;;;-147.17;100.00;59696.56;5032391;28;50981;-51
2021/06/09 06:52:31;;;;;;;;;26.75;26.00;;;;;-147.17;100.00;59696.56;5029171;28;51866;-48
2021/06/09 06:54:59;;;;;;;;;25.50;25.00;;;;;-147.17;100.00;59696.56;5032704;28;51251;-47
2021/06/09 06:57:25;;;;;;;;;27.25;26.00;;;;;-147.17;100.00;59696.56;5031741;28;51032;-49
2021/06/09 06:59:52;;;;;;;;;28.75;28.00;;;;;-147.17;100.00;59696.56;5033566;28;51382;-47
2021/06/09 07:02:18;;;;;;;;;26.75;25.50;;;;;-147.17;100.00;59696.56;5030983;28;51673;-47
2021/06/09 07:04:44;;;;;;;;;26.50;26.50;;;;;-147.17;100.00;59696.56;5033511;28;51016;-47
2021/06/09 07:07:10;;;;;;;;;30.00;27.75;;;;;-147.17;100.00;59696.56;5029881;28;53305;-47
2021/06/09 07:09:35;;;;;;;;;26.00;25.00;;;;;-147.17;100.00;59696.56;5032462;28;51144;-46
2021/06/09 07:12:03;;;;;;;;;26.25;24.75;;;;;-147.17;100.00;59696.56;5031005;28;51911;-48
2021/06/09 07:14:30;;;;;;;;;24.50;23.25;;;;;-147.17;100.00;59696.56;5063093;28;51127;-47
2021/06/09 07:16:56;;;;;;;;;27.75;26.50;;;;;-147.17;100.00;59696.56;5030688;28;51107;-50
2021/06/09 07:19:22;;;;;;;;;23.75;23.25;;;;;-147.17;100.00;59696.56;5033764;28;50936;-47
2021/06/09 07:21:48;;;;;;;;;25.25;24.75;;;;;-147.17;100.00;59696.56;5032144;28;51266;-50
2021/06/09 07:24:15;;;;;;;;;27.25;26.25;;;;;-147.17;100.00;59696.56;5035838;28;51061;-48
2021/06/09 07:26:46;;;;;;;;;30.25;29.00;;;;;-147.17;100.00;59696.56;5030697;28;51414;-51
2021/06/09 07:29:15;;;;;;;;;29.00;27.50;;;;;-147.17;100.00;59696.56;5032045;28;51362;-50
2021/06/09 07:31:44;;;;;;;;;26.75;26.50;;;;;-147.17;100.00;59696.56;5023866;28;51825;-47
2021/06/09 07:34:10;;;;;;;;;30.50;28.00;;;;;-147.17;100.00;59696.56;5027009;28;51219;-47
2021/06/09 07:36:42;;;;;;;;;30.25;29.25;;;;;-147.17;100.00;59696.56;5029883;28;51202;-49
2021/06/09 07:39:15;;;;;;;;;32.75;30.75;;;;;-147.17;100.00;59696.56;5028508;28;51295;-49
2021/06/09 07:41:43;;;;;;;;;31.25;29.00;;;;;-147.17;100.00;59696.56;5029882;28;53055;-46
2021/06/09 07:44:11;;;;;;;;;27.00;26.75;;;;;-147.17;100.00;59696.56;5030467;28;51138;-50
2021/06/09 07:46:37;;;;;;;;;31.75;29.00;;;;;-147.17;100.00;59696.56;5029347;28;51316;-47
2021/06/09 07:49:07;;;;;;;;;30.25;29.00;;;;;-147.17;100.00;59696.56;5030345;28;51392;-47
2021/06/09 07:51:34;;;;;;;;;28.75;27.75;;;;;-147.17;100.00;59696.56;5030560;28;52295;-50
2021/06/09 07:54:01;;;;;;;;;29.75;28.50;;;;;-147.17;100.00;59696.56;5032110;28;51123;-46
2021/06/09 07:56:35;;;;;;;;;23.75;23.75;;;;;-147.17;100.00;59696.56;5031805;28;51490;-48
2021/06/09 07:59:03;;;;;;;;;28.25;27.75;;;;;-147.17;100.00;59696.56;5030623;28;51047;-48
2021/06/09 08:01:29;;;;;;;;;28.00;27.00;;;;;-147.17;100.00;59696.56;5027465;28;51921;-48
2021/06/09 08:03:55;;;;;;;;;24.50;23.75;;;;;-147.17;100.00;59696.56;5025797;28;50969;-51
2021/06/09 08:06:22;;;;;;;;;24.00;23.50;;;;;-147.17;100.00;59696.56;5031076;28;51227;-47
2021/06/09 08:08:47;;;;;;;;;26.75;25.00;;;;;-147.17;100.00;59696.56;5030146;28;51450;-51
2021/06/09 08:11:14;;;;;;;;;26.00;25.50;;;;;-147.17;100.00;59696.56;5037288;28;51804;-50
2021/06/09 08:13:42;;;;;;;;;21.25;20.75;;;;;-147.17;100.00;59696.56;5031718;28;51401;-46
2021/06/09 08:16:13;;;;;;;;;25.75;23.75;;;;;-147.17;100.00;59696.56;5029821;28;51322;-52
2021/06/09 08:18:39;;;;;;;;;25.00;23.25;;;;;-147.17;100.00;59696.56;5031361;28;51110;-47
2021/06/09 08:21:07;;;;;;;;;22.25;22.25;;;;;-147.17;100.00;59696.56;5027260;28;52741;-48
2021/06/09 08:23:34;;;;;;;;;23.00;22.25;;;;;-147.17;100.00;59696.56;5031006;28;51242;-49
2021/06/09 08:26:00;;;;;;;;;20.75;19.50;;;;;-147.17;100.00;59696.56;5032269;28;50970;-47
2021/06/09 08:28:28;;;;;;;;;18.50;18.00;;;;;-147.17;100.00;59696.56;5029894;28;51274;-49
2021/06/09 08:30:53;;;;;;;;;24.75;23.75;;;;;-147.17;100.00;59696.56;5031719;28;52614;-49
2021/06/09 08:33:18;;;;;;;;;23.00;23.00;;;;;-147.17;100.00;59696.56;5029286;28;52311;-46
2021/06/09 08:35:44;;;;;;;;;22.00;21.00;;;;;-147.17;100.00;59696.56;5030347;28;51245;-46
2021/06/09 08:38:09;;;;;;;;;19.25;19.00;;;;;-147.17;100.00;59696.56;5029301;28;51125;-47
2021/06/09 08:40:34;;;;;;;;;21.25;21.00;;;;;-147.17;100.00;59696.56;5028765;28;51989;-45
2021/06/09 08:43:01;;;;;;;;;20.50;20.00;;;;;-147.17;100.00;59696.56;5028668;28;51393;-48
2021/06/09 08:45:26;;;;;;;;;17.00;16.50;;;;;-147.17;100.00;59696.56;5025874;28;51309;-51
2021/06/09 08:47:52;;;;;;;;;17.25;17.00;;;;;-147.17;100.00;59696.56;5029141;28;51425;-48
2021/06/09 08:50:19;;;;;;;;;15.50;15.50;;;;;-147.17;100.00;59696.56;5027932;28;51968;-51
2021/06/09 08:52:50;;;;;;;;;12.00;11.50;;;;;-147.17;100.00;59696.56;5027306;28;51437;-50
2021/06/09 08:55:17;;;;;;;;;12.00;11.75;;;;;-147.17;100.00;59696.56;5027071;28;51255;-48
2021/06/09 08:57:43;;;;;;;;;12.75;12.75;;;;;-147.17;100.00;59696.56;5028275;28;51567;-48
2021/06/09 09:00:11;;;;;;;;;15.75;15.75;;;;;-147.17;100.00;59696.56;5029701;28;51249;-48
2021/06/09 09:02:38;;;;;;;;;13.25;12.50;;;;;-147.17;100.00;59696.56;5027510;28;51142;-47
2021/06/09 09:05:06;;;;;;;;;11.25;11.25;;;;;-147.17;100.00;59696.56;5030658;28;51085;-46
2021/06/09 09:07:31;;;;;;;;;10.00;10.00;;;;;-147.17;100.00;59696.56;5025582;28;51243;-47
2021/06/09 09:10:00;;;;;;;;;12.25;11.75;;;;;-147.17;100.00;59696.56;5029458;28;51604;-49
2021/06/09 09:12:26;;;;;;;;;10.25;8.50;;;;;-147.17;100.00;59696.56;5029140;28;50955;-47
2021/06/09 09:14:51;;;;;;;;;11.25;10.75;;;;;-147.17;100.00;59696.56;5028152;28;51146;-48
2021/06/09 09:17:16;;;;;;;;;8.00;7.00;;;;;-147.17;100.00;59696.56;5028270;28;51123;-48
2021/06/09 09:19:45;;;;;;;;;5.75;5.75;;;;;-147.17;100.00;59696.56;5029941;28;51900;-50
2021/06/09 09:22:17;;;;;;;;;7.00;7.00;;;;;-147.17;100.00;59696.56;5030588;28;50962;-50
2021/06/09 09:24:48;;;;;;;;;6.25;6.25;;;;;-147.17;100.00;59696.56;5029716;28;51382;-48
2021/06/09 09:27:24;;;;;;;;;4.75;4.75;;;;;-147.17;100.00;59696.56;5027556;28;51098;-49
2021/06/09 09:30:10;;;;;;;;;5.25;4.50;;;;;-147.17;100.00;59696.56;5029646;28;51119;-48
2021/06/09 09:32:54;;;;;;;;;11.00;11.00;;;;;-147.17;100.00;59696.56;5032227;28;52187;-51
2021/06/09 09:35:26;;;;;;;;;10.00;10.00;;;;;-147.17;100.00;59696.56;5031521;28;50942;-52
2021/06/09 09:38:15;;;;;;;;;10.00;10.00;;;;;-147.17;100.00;59696.56;5032696;28;51290;-51
2021/06/09 09:40:59;;;;;;;;;8.00;8.00;;;;;-147.17;100.00;59696.56;5024642;28;52872;-51
2021/06/09 09:43:45;;;;;;;;;6.25;6.25;;;;;-147.17;100.00;59696.56;5028509;28;51110;-50
2021/06/09 09:46:13;;;;;;;;;7.00;6.00;;;;;-147.17;100.00;59696.56;5031946;28;51075;-48
2021/06/09 09:48:41;;;;;;;;;6.25;6.00;;;;;-147.17;100.00;59696.56;5032453;28;51232;-50
2021/06/09 09:51:10;;;;;;;;;8.00;8.00;;;;;-147.17;100.00;59696.56;5030603;28;52017;-51
2021/06/09 09:53:36;;;;;;;;;7.75;7.75;;;;;-147.17;100.00;59696.56;5032686;28;51019;-48
2021/06/09 09:56:06;;;;;;;;;4.25;4.25;;;;;-147.17;100.00;59696.56;5033158;28;51199;-50
2021/06/09 09:58:34;;;;;;;;;5.00;5.00;;;;;-147.17;100.00;59696.56;5028421;28;51443;-51
2021/06/09 10:01:18;;;;;;;;;3.75;3.75;;;;;-147.17;100.00;59696.56;5032709;28;51868;-46
2021/06/09 10:03:46;;;;;;;;;5.00;4.50;;;;;-147.17;100.00;59696.56;5029553;28;51102;-50
2021/06/09 10:06:39;;;;;;;;;4.25;4.00;;;;;-147.17;100.00;59696.56;5028919;28;51254;-49
2021/06/09 10:09:15;;;;;;;;;7.75;7.75;;;;;-147.17;100.00;59696.56;5023751;28;51256;-46
2021/06/09 10:12:07;;;;;;;;;7.50;7.50;;;;;-147.17;100.00;59696.56;5028637;28;52194;-49
2021/06/09 10:14:41;;;;;;;;;8.00;8.00;;;;;-147.17;100.00;59696.56;5022268;28;50905;-48
2021/06/09 10:17:19;;;;;;;;;7.75;7.75;;;;;-147.17;100.00;59696.56;5030890;28;51158;-47
2021/06/09 10:19:59;;;;;;;;;5.75;5.75;;;;;-147.17;100.00;59696.56;5031229;28;50931;-46
2021/06/09 10:22:32;;;;;;;;;6.75;6.75;;;;;-147.17;100.00;59696.56;5031788;28;51128;-51
2021/06/09 10:25:01;;;;;;;;;6.50;6.25;;;;;-147.17;100.00;59696.56;5032869;28;51714;-48
2021/06/09 10:27:48;;;;;;;;;8.75;8.00;;;;;-147.17;100.00;59696.56;5033036;28;51286;-50
2021/06/09 10:30:20;;;;;;;;;5.75;5.75;;;;;-147.17;100.00;59696.56;5028749;28;51382;-51
2021/06/09 10:32:53;;;;;;;;;7.25;7.25;;;;;-147.17;100.00;59696.56;5031294;28;52035;-49
2021/06/09 10:35:21;;;;;;;;;7.25;7.25;;;;;-147.17;100.00;59696.56;5030530;28;51179;-51
2021/06/09 10:37:49;;;;;;;;;8.75;8.75;;;;;-147.17;100.00;59696.56;5034724;28;50995;-48
2021/06/09 10:40:17;;;;;;;;;8.25;8.25;;;;;-147.17;100.00;59696.56;5034024;28;51063;-50
2021/06/09 10:42:45;;;;;;;;;7.25;7.25;;;;;-147.17;100.00;59696.56;5033852;28;52994;-49
2021/06/09 10:45:11;;;;;;;;;8.00;8.00;;;;;-147.17;100.00;59696.56;5033171;28;51055;-51
2021/06/09 10:47:37;;;;;;;;;9.00;8.00;;;;;-147.17;100.00;59696.56;5033765;28;51321;-50
2021/06/09 10:50:07;;;;;;;;;9.50;9.50;;;;;-147.17;100.00;59696.56;5033815;28;51836;-47
2021/06/09 10:52:33;;;;;;;;;13.25;13.25;;;;;-147.17;100.00;59696.56;5023820;28;52104;-47
2021/06/09 10:54:59;;;;;;;;;8.25;8.25;;;;;-147.17;100.00;59696.56;5033167;28;51381;-49
2021/06/09 10:57:26;;;;;;;;;7.25;7.25;;;;;-147.17;100.00;59696.56;5033199;28;51136;-50
2021/06/09 10:59:51;;;;;;;;;7.75;7.75;;;;;-147.17;100.00;59696.56;5034019;28;51415;-51
2021/06/09 11:02:21;;;;;;;;;8.50;8.50;;;;;-147.17;100.00;59696.56;5033342;28;51145;-51
2021/06/09 11:04:49;;;;;;;;;8.00;8.00;;;;;-147.17;100.00;59696.56;5033535;28;50947;-47
2021/06/09 11:07:32;;;;;;;;;8.75;8.75;;;;;-147.17;100.00;59696.56;5032464;28;51368;-48
2021/06/09 11:10:07;;;;;;;;;8.00;8.00;;;;;-147.17;100.00;59696.56;5032612;28;51159;-52
2021/06/09 11:12:44;;;;;;;;;8.00;8.00;;;;;-147.17;100.00;59696.56;5031657;28;54223;-52